sensor_id;sensor_type;location;lat;lon;timestamp;pressure;altitude;pressure_sealevel;temperature;humidity
73085;BME280;62974;49.460;10.892;2022-08-21T00:00:23;97816.00;;;19.00;73.40
73085;BME280;62974;49.460;10.892;2022-08-21T00:02:55;97814.41;;;18.99;73.09
73085;BME280;62974;49.460;10.892;2022-08-21T00:05:25;97817.34;;;18.97;73.39
73085;BME280;62974;49.460;10.892;2022-08-21T00:07:54;97804.25;;;18.94;73.65
73085;BME280;62974;49.460;10.892;2022-08-21T00:10:22;97800.97;;;18.92;73.47
73085;BME280;62974;49.460;10.892;2022-08-21T00:12:50;97805.84;;;18.90;73.14
73085;BME280;62974;49.460;10.892;2022-08-21T00:15:22;97806.91;;;18.89;73.02
73085;BME280;62974;49.460;10.892;2022-08-21T00:17:50;97802.31;;;18.90;73.11
73085;BME280;62974;49.460;10.892;2022-08-21T00:20:20;97797.38;;;18.87;73.10
73085;BME280;62974;49.460;10.892;2022-08-21T00:22:48;97803.59;;;18.87;73.01
73085;BME280;62974;49.460;10.892;2022-08-21T00:25:17;97797.63;;;18.85;73.09
73085;BME280;62974;49.460;10.892;2022-08-21T00:27:50;97809.00;;;18.82;73.14
73085;BME280;62974;49.460;10.892;2022-08-21T00:30:19;97808.09;;;18.76;73.54
73085;BME280;62974;49.460;10.892;2022-08-21T00:32:49;97802.66;;;18.76;73.14
73085;BME280;62974;49.460;10.892;2022-08-21T00:35:23;97807.03;;;18.77;73.13
73085;BME280;62974;49.460;10.892;2022-08-21T00:37:51;97804.84;;;18.74;73.22
73085;BME280;62974;49.460;10.892;2022-08-21T00:40:23;97803.72;;;18.75;73.17
73085;BME280;62974;49.460;10.892;2022-08-21T00:42:51;97802.59;;;18.71;73.74
73085;BME280;62974;49.460;10.892;2022-08-21T00:45:20;97798.25;;;18.70;73.67
73085;BME280;62974;49.460;10.892;2022-08-21T00:47:48;97805.00;;;18.68;73.39
73085;BME280;62974;49.460;10.892;2022-08-21T00:50:16;97801.44;;;18.67;73.53
73085;BME280;62974;49.460;10.892;2022-08-21T00:52:49;97797.94;;;18.67;73.78
73085;BME280;62974;49.460;10.892;2022-08-21T00:55:19;97792.50;;;18.67;73.67
73085;BME280;62974;49.460;10.892;2022-08-21T00:57:50;97796.78;;;18.63;73.80
73085;BME280;62974;49.460;10.892;2022-08-21T01:00:23;97796.44;;;18.59;73.64
73085;BME280;62974;49.460;10.892;2022-08-21T01:02:51;97800.44;;;18.52;74.17
73085;BME280;62974;49.460;10.892;2022-08-21T01:05:18;97801.25;;;18.52;73.78
73085;BME280;62974;49.460;10.892;2022-08-21T01:07:46;97800.75;;;18.55;73.73
73085;BME280;62974;49.460;10.892;2022-08-21T01:10:16;97801.84;;;18.54;73.83
73085;BME280;62974;49.460;10.892;2022-08-21T01:12:50;97803.72;;;18.54;74.07
73085;BME280;62974;49.460;10.892;2022-08-21T01:15:19;97800.44;;;18.52;74.44
73085;BME280;62974;49.460;10.892;2022-08-21T01:17:49;97798.53;;;18.52;73.83
73085;BME280;62974;49.460;10.892;2022-08-21T01:20:17;97810.94;;;18.48;73.96
73085;BME280;62974;49.460;10.892;2022-08-21T01:22:46;97803.31;;;18.45;73.63
73085;BME280;62974;49.460;10.892;2022-08-21T01:25:15;97804.38;;;18.44;73.43
73085;BME280;62974;49.460;10.892;2022-08-21T01:27:45;97801.66;;;18.44;73.41
73085;BME280;62974;49.460;10.892;2022-08-21T01:30:16;97798.94;;;18.44;73.43
73085;BME280;62974;49.460;10.892;2022-08-21T01:32:45;97805.38;;;18.38;73.52
73085;BME280;62974;49.460;10.892;2022-08-21T01:35:15;97803.72;;;18.37;73.17
73085;BME280;62974;49.460;10.892;2022-08-21T01:37:46;97805.63;;;18.37;73.19
73085;BME280;62974;49.460;10.892;2022-08-21T01:40:16;97809.41;;;18.36;73.54
73085;BME280;62974;49.460;10.892;2022-08-21T01:42:45;97809.91;;;18.33;73.86
73085;BME280;62974;49.460;10.892;2022-08-21T01:45:14;97805.53;;;18.31;73.99
73085;BME280;62974;49.460;10.892;2022-08-21T01:47:42;97799.88;;;18.33;73.73
73085;BME280;62974;49.460;10.892;2022-08-21T01:50:17;97805.81;;;18.30;73.58
73085;BME280;62974;49.460;10.892;2022-08-21T01:52:47;97803.66;;;18.32;73.73
73085;BME280;62974;49.460;10.892;2022-08-21T01:55:16;97800.59;;;18.28;73.55
73085;BME280;62974;49.460;10.892;2022-08-21T01:57:45;97791.38;;;18.29;73.50
73085;BME280;62974;49.460;10.892;2022-08-21T02:00:17;97792.13;;;18.25;74.01
73085;BME280;62974;49.460;10.892;2022-08-21T02:02:45;97794.28;;;18.23;73.47
73085;BME280;62974;49.460;10.892;2022-08-21T02:05:13;97795.59;;;18.20;73.60
73085;BME280;62974;49.460;10.892;2022-08-21T02:07:43;97784.81;;;18.25;73.50
73085;BME280;62974;49.460;10.892;2022-08-21T02:10:15;97795.59;;;18.20;74.07
73085;BME280;62974;49.460;10.892;2022-08-21T02:12:44;97789.41;;;18.25;73.34
73085;BME280;62974;49.460;10.892;2022-08-21T02:15:12;97781.50;;;18.23;73.66
73085;BME280;62974;49.460;10.892;2022-08-21T02:17:42;97795.91;;;18.24;73.66
73085;BME280;62974;49.460;10.892;2022-08-21T02:20:12;97794.13;;;18.13;74.42
73085;BME280;62974;49.460;10.892;2022-08-21T02:22:42;97795.88;;;18.02;74.76
73085;BME280;62974;49.460;10.892;2022-08-21T02:25:09;97796.00;;;18.12;74.53
73085;BME280;62974;49.460;10.892;2022-08-21T02:27:39;97803.44;;;18.17;74.47
73085;BME280;62974;49.460;10.892;2022-08-21T02:30:11;97797.25;;;18.21;74.63
73085;BME280;62974;49.460;10.892;2022-08-21T02:32:39;97797.56;;;18.25;74.20
73085;BME280;62974;49.460;10.892;2022-08-21T02:35:09;97795.44;;;18.27;74.14
73085;BME280;62974;49.460;10.892;2022-08-21T02:37:43;97797.00;;;18.23;74.21
73085;BME280;62974;49.460;10.892;2022-08-21T02:40:12;97792.88;;;18.20;74.79
73085;BME280;62974;49.460;10.892;2022-08-21T02:42:42;97791.56;;;18.23;74.59
73085;BME280;62974;49.460;10.892;2022-08-21T02:45:12;97786.63;;;18.20;75.43
73085;BME280;62974;49.460;10.892;2022-08-21T02:47:40;97791.56;;;18.23;74.99
73085;BME280;62974;49.460;10.892;2022-08-21T02:50:08;97790.75;;;18.22;74.87
73085;BME280;62974;49.460;10.892;2022-08-21T02:52:35;97795.91;;;18.24;74.99
73085;BME280;62974;49.460;10.892;2022-08-21T02:55:04;97795.09;;;18.23;75.29
73085;BME280;62974;49.460;10.892;2022-08-21T02:57:31;97800.78;;;18.22;75.18
73085;BME280;62974;49.460;10.892;2022-08-21T03:00:00;97787.75;;;18.24;75.17
73085;BME280;62974;49.460;10.892;2022-08-21T03:02:28;97789.91;;;18.22;75.24
73085;BME280;62974;49.460;10.892;2022-08-21T03:04:56;97795.50;;;18.15;76.02
73085;BME280;62974;49.460;10.892;2022-08-21T03:07:23;97792.00;;;18.15;75.93
73085;BME280;62974;49.460;10.892;2022-08-21T03:09:51;97786.78;;;18.13;76.33
73085;BME280;62974;49.460;10.892;2022-08-21T03:12:21;97789.44;;;18.08;77.41
73085;BME280;62974;49.460;10.892;2022-08-21T03:14:49;97795.88;;;18.02;77.99
73085;BME280;62974;49.460;10.892;2022-08-21T03:17:18;97790.25;;;18.09;76.71
73085;BME280;62974;49.460;10.892;2022-08-21T03:19:55;97803.19;;;18.18;76.76
73085;BME280;62974;49.460;10.892;2022-08-21T03:22:23;97800.78;;;18.22;76.41
73085;BME280;62974;49.460;10.892;2022-08-21T03:24:52;97804.91;;;18.08;77.47
73085;BME280;62974;49.460;10.892;2022-08-21T03:27:20;97802.59;;;18.00;78.56
73085;BME280;62974;49.460;10.892;2022-08-21T03:29:48;97792.75;;;18.10;77.34
73085;BME280;62974;49.460;10.892;2022-08-21T03:32:17;97799.88;;;18.16;76.95
73085;BME280;62974;49.460;10.892;2022-08-21T03:34:45;97794.72;;;18.15;78.36
73085;BME280;62974;49.460;10.892;2022-08-21T03:37:14;97799.31;;;17.98;78.77
73085;BME280;62974;49.460;10.892;2022-08-21T03:39:41;97802.03;;;17.98;78.88
73085;BME280;62974;49.460;10.892;2022-08-21T03:42:09;97800.66;;;17.95;78.79
73085;BME280;62974;49.460;10.892;2022-08-21T03:44:37;97805.72;;;17.92;80.80
73085;BME280;62974;49.460;10.892;2022-08-21T03:47:06;97804.44;;;17.94;78.52
73085;BME280;62974;49.460;10.892;2022-08-21T03:49:35;97803.19;;;18.02;77.61
73085;BME280;62974;49.460;10.892;2022-08-21T03:52:03;97804.13;;;18.07;77.62
73085;BME280;62974;49.460;10.892;2022-08-21T03:54:31;97801.88;;;18.04;77.97
73085;BME280;62974;49.460;10.892;2022-08-21T03:57:00;97804.34;;;18.06;78.41
73085;BME280;62974;49.460;10.892;2022-08-21T03:59:27;97798.69;;;18.07;78.04
73085;BME280;62974;49.460;10.892;2022-08-21T04:01:58;97798.50;;;18.14;77.90
73085;BME280;62974;49.460;10.892;2022-08-21T04:04:27;97802.69;;;18.05;78.37
73085;BME280;62974;49.460;10.892;2022-08-21T04:06:57;97802.78;;;18.10;77.88
73085;BME280;62974;49.460;10.892;2022-08-21T04:09:25;97800.38;;;18.13;77.77
73085;BME280;62974;49.460;10.892;2022-08-21T04:11:53;97802.91;;;18.20;77.45
73085;BME280;62974;49.460;10.892;2022-08-21T04:14:21;97805.41;;;18.21;77.86
73085;BME280;62974;49.460;10.892;2022-08-21T04:16:49;97805.16;;;18.23;76.98
73085;BME280;62974;49.460;10.892;2022-08-21T04:19:16;97813.06;;;18.24;76.59
73085;BME280;62974;49.460;10.892;2022-08-21T04:21:44;97813.31;;;18.23;76.45
73085;BME280;62974;49.460;10.892;2022-08-21T04:24:13;97821.72;;;18.21;77.37
73085;BME280;62974;49.460;10.892;2022-08-21T04:26:40;97816.28;;;18.21;77.70
73085;BME280;62974;49.460;10.892;2022-08-21T04:29:08;97822.78;;;18.20;77.33
73085;BME280;62974;49.460;10.892;2022-08-21T04:31:36;97823.59;;;18.21;77.15
73085;BME280;62974;49.460;10.892;2022-08-21T04:34:04;97827.91;;;18.17;77.36
73085;BME280;62974;49.460;10.892;2022-08-21T04:36:32;97831.19;;;18.19;77.32
73085;BME280;62974;49.460;10.892;2022-08-21T04:39:00;97834.97;;;18.18;77.35
73085;BME280;62974;49.460;10.892;2022-08-21T04:41:30;97842.88;;;18.19;77.69
73085;BME280;62974;49.460;10.892;2022-08-21T04:43:58;97835.97;;;18.12;77.96
73085;BME280;62974;49.460;10.892;2022-08-21T04:46:25;97840.59;;;18.11;77.66
73085;BME280;62974;49.460;10.892;2022-08-21T04:48:53;97833.00;;;18.13;77.41
73085;BME280;62974;49.460;10.892;2022-08-21T04:51:23;97847.97;;;18.16;77.46
73085;BME280;62974;49.460;10.892;2022-08-21T04:53:55;97839.59;;;18.01;78.79
73085;BME280;62974;49.460;10.892;2022-08-21T04:56:27;97843.72;;;17.87;80.91
73085;BME280;62974;49.460;10.892;2022-08-21T04:59:02;97841.00;;;17.87;79.44
73085;BME280;62974;49.460;10.892;2022-08-21T05:01:34;97844.03;;;17.73;79.54
73085;BME280;62974;49.460;10.892;2022-08-21T05:04:06;97844.19;;;17.83;79.25
73085;BME280;62974;49.460;10.892;2022-08-21T05:06:36;97854.19;;;17.95;78.31
73085;BME280;62974;49.460;10.892;2022-08-21T05:09:06;97849.06;;;17.98;78.58
73085;BME280;62974;49.460;10.892;2022-08-21T05:11:36;97861.31;;;17.84;79.69
73085;BME280;62974;49.460;10.892;2022-08-21T05:14:05;97862.31;;;17.78;80.16
73085;BME280;62974;49.460;10.892;2022-08-21T05:16:33;97868.38;;;17.68;79.99
73085;BME280;62974;49.460;10.892;2022-08-21T05:19:03;97868.19;;;17.58;81.20
73085;BME280;62974;49.460;10.892;2022-08-21T05:21:31;97865.09;;;17.66;80.50
73085;BME280;62974;49.460;10.892;2022-08-21T05:23:59;97871.75;;;17.59;82.26
73085;BME280;62974;49.460;10.892;2022-08-21T05:26:27;97861.94;;;17.58;81.31
73085;BME280;62974;49.460;10.892;2022-08-21T05:28:55;97868.75;;;17.60;81.28
73085;BME280;62974;49.460;10.892;2022-08-21T05:31:24;97869.09;;;17.64;80.19
73085;BME280;62974;49.460;10.892;2022-08-21T05:33:52;97864.75;;;17.63;80.04
73085;BME280;62974;49.460;10.892;2022-08-21T05:36:21;97873.91;;;17.73;79.29
73085;BME280;62974;49.460;10.892;2022-08-21T05:38:49;97863.38;;;17.77;78.16
73085;BME280;62974;49.460;10.892;2022-08-21T05:41:17;97865.84;;;17.78;79.85
73085;BME280;62974;49.460;10.892;2022-08-21T05:43:45;97858.25;;;17.80;78.99
73085;BME280;62974;49.460;10.892;2022-08-21T05:46:12;97863.69;;;17.80;79.69
73085;BME280;62974;49.460;10.892;2022-08-21T05:48:41;97863.94;;;17.96;77.87
73085;BME280;62974;49.460;10.892;2022-08-21T05:51:10;97862.75;;;18.03;77.17
73085;BME280;62974;49.460;10.892;2022-08-21T05:53:40;97871.97;;;18.02;77.97
73085;BME280;62974;49.460;10.892;2022-08-21T05:56:08;97866.44;;;17.97;78.09
73085;BME280;62974;49.460;10.892;2022-08-21T05:58:37;97868.50;;;17.90;78.54
73085;BME280;62974;49.460;10.892;2022-08-21T06:01:05;97860.25;;;18.02;77.80
73085;BME280;62974;49.460;10.892;2022-08-21T06:03:37;97859.25;;;18.08;77.58
73085;BME280;62974;49.460;10.892;2022-08-21T06:06:07;97871.06;;;18.13;77.60
73085;BME280;62974;49.460;10.892;2022-08-21T06:08:34;97876.06;;;18.05;77.76
73085;BME280;62974;49.460;10.892;2022-08-21T06:11:03;97879.66;;;17.77;80.87
73085;BME280;62974;49.460;10.892;2022-08-21T06:13:32;97874.25;;;17.94;79.40
73085;BME280;62974;49.460;10.892;2022-08-21T06:16:02;97881.66;;;17.81;81.05
73085;BME280;62974;49.460;10.892;2022-08-21T06:18:29;97886.41;;;17.74;81.42
73085;BME280;62974;49.460;10.892;2022-08-21T06:20:57;97888.47;;;17.67;81.74
73085;BME280;62974;49.460;10.892;2022-08-21T06:23:27;97878.31;;;17.91;78.85
73085;BME280;62974;49.460;10.892;2022-08-21T06:25:59;97879.84;;;18.04;78.54
73085;BME280;62974;49.460;10.892;2022-08-21T06:28:27;97878.38;;;17.96;78.91
73085;BME280;62974;49.460;10.892;2022-08-21T06:30:54;97878.69;;;18.00;79.10
73085;BME280;62974;49.460;10.892;2022-08-21T06:33:22;97882.16;;;18.12;77.98
73085;BME280;62974;49.460;10.892;2022-08-21T06:35:57;97887.91;;;17.82;80.84
73085;BME280;62974;49.460;10.892;2022-08-21T06:38:25;97888.81;;;17.88;80.75
73085;BME280;62974;49.460;10.892;2022-08-21T06:40:55;97886.28;;;17.98;79.29
73085;BME280;62974;49.460;10.892;2022-08-21T06:43:23;97900.19;;;17.84;81.69
73085;BME280;62974;49.460;10.892;2022-08-21T06:46:05;97899.91;;;17.69;83.07
73085;BME280;62974;49.460;10.892;2022-08-21T06:48:34;97901.34;;;17.89;79.97
73085;BME280;62974;49.460;10.892;2022-08-21T06:51:02;97895.88;;;17.72;83.58
73085;BME280;62974;49.460;10.892;2022-08-21T06:53:30;97903.50;;;17.58;82.94
73085;BME280;62974;49.460;10.892;2022-08-21T06:55:59;97900.63;;;17.65;83.55
73085;BME280;62974;49.460;10.892;2022-08-21T06:58:26;97890.44;;;17.72;83.12
73085;BME280;62974;49.460;10.892;2022-08-21T07:00:54;97901.94;;;17.91;79.37
73085;BME280;62974;49.460;10.892;2022-08-21T07:03:28;97899.25;;;18.07;78.59
73085;BME280;62974;49.460;10.892;2022-08-21T07:05:56;97897.41;;;18.13;79.04
73085;BME280;62974;49.460;10.892;2022-08-21T07:08:26;97893.78;;;18.24;77.88
73085;BME280;62974;49.460;10.892;2022-08-21T07:10:55;97893.72;;;18.02;80.00
73085;BME280;62974;49.460;10.892;2022-08-21T07:13:25;97898.97;;;18.09;80.07
73085;BME280;62974;49.460;10.892;2022-08-21T07:15:53;97890.41;;;18.00;80.01
73085;BME280;62974;49.460;10.892;2022-08-21T07:18:23;97904.25;;;18.15;78.65
73085;BME280;62974;49.460;10.892;2022-08-21T07:20:51;97900.88;;;18.25;77.84
73085;BME280;62974;49.460;10.892;2022-08-21T07:23:26;97895.78;;;18.28;77.69
73085;BME280;62974;49.460;10.892;2022-08-21T07:25:55;97896.84;;;18.27;78.16
73085;BME280;62974;49.460;10.892;2022-08-21T07:28:24;97907.50;;;17.84;83.54
73085;BME280;62974;49.460;10.892;2022-08-21T07:30:54;97910.16;;;17.79;84.32
73085;BME280;62974;49.460;10.892;2022-08-21T07:33:23;97908.91;;;17.87;81.38
73085;BME280;62974;49.460;10.892;2022-08-21T07:35:52;97895.03;;;18.16;79.72
73085;BME280;62974;49.460;10.892;2022-08-21T07:38:20;97901.16;;;17.78;84.56
73085;BME280;62974;49.460;10.892;2022-08-21T07:40:48;97903.75;;;18.02;81.58
73085;BME280;62974;49.460;10.892;2022-08-21T07:43:17;97893.94;;;18.01;83.23
73085;BME280;62974;49.460;10.892;2022-08-21T07:45:46;97891.31;;;18.06;82.68
73085;BME280;62974;49.460;10.892;2022-08-21T07:48:15;97891.66;;;18.26;79.77
73085;BME280;62974;49.460;10.892;2022-08-21T07:50:43;97890.00;;;18.25;81.14
73085;BME280;62974;49.460;10.892;2022-08-21T07:53:11;97891.25;;;18.17;79.39
73085;BME280;62974;49.460;10.892;2022-08-21T07:55:39;97889.91;;;18.37;77.87
73085;BME280;62974;49.460;10.892;2022-08-21T07:58:07;97887.53;;;18.40;78.67
73085;BME280;62974;49.460;10.892;2022-08-21T08:00:35;97887.38;;;18.13;82.37
73085;BME280;62974;49.460;10.892;2022-08-21T08:03:04;97890.41;;;18.17;80.91
73085;BME280;62974;49.460;10.892;2022-08-21T08:05:32;97895.63;;;18.18;80.12
73085;BME280;62974;49.460;10.892;2022-08-21T08:08:03;97889.91;;;18.20;81.40
73085;BME280;62974;49.460;10.892;2022-08-21T08:10:30;97892.41;;;18.38;79.77
73085;BME280;62974;49.460;10.892;2022-08-21T08:12:58;97890.19;;;18.52;77.81
73085;BME280;62974;49.460;10.892;2022-08-21T08:15:27;97895.25;;;18.48;79.07
73085;BME280;62974;49.460;10.892;2022-08-21T08:17:58;97892.00;;;18.46;80.15
73085;BME280;62974;49.460;10.892;2022-08-21T08:20:28;97888.34;;;18.24;82.39
73085;BME280;62974;49.460;10.892;2022-08-21T08:22:56;97890.59;;;18.27;82.38
73085;BME280;62974;49.460;10.892;2022-08-21T08:25:26;97886.63;;;18.35;82.75
73085;BME280;62974;49.460;10.892;2022-08-21T08:28:02;97884.81;;;18.40;80.27
73085;BME280;62974;49.460;10.892;2022-08-21T08:30:43;97881.91;;;18.63;78.36
73085;BME280;62974;49.460;10.892;2022-08-21T08:33:11;97884.31;;;18.60;79.25
73085;BME280;62974;49.460;10.892;2022-08-21T08:35:40;97880.69;;;18.71;79.99
73085;BME280;62974;49.460;10.892;2022-08-21T08:38:09;97882.75;;;18.64;81.24
73085;BME280;62974;49.460;10.892;2022-08-21T08:40:40;97878.72;;;18.50;83.70
73085;BME280;62974;49.460;10.892;2022-08-21T08:43:11;97877.25;;;18.59;81.24
73085;BME280;62974;49.460;10.892;2022-08-21T08:45:45;97877.56;;;18.62;82.68
73085;BME280;62974;49.460;10.892;2022-08-21T08:48:20;97878.66;;;18.61;82.35
73085;BME280;62974;49.460;10.892;2022-08-21T08:50:57;97871.06;;;18.47;83.10
73085;BME280;62974;49.460;10.892;2022-08-21T08:53:30;97875.28;;;18.54;82.36
73085;BME280;62974;49.460;10.892;2022-08-21T08:56:00;97873.53;;;18.65;82.23
73085;BME280;62974;49.460;10.892;2022-08-21T08:58:33;97884.38;;;18.82;81.75
73085;BME280;62974;49.460;10.892;2022-08-21T09:01:01;97877.69;;;18.89;82.09
73085;BME280;62974;49.460;10.892;2022-08-21T09:03:32;97874.19;;;18.94;80.22
73085;BME280;62974;49.460;10.892;2022-08-21T09:06:05;97877.78;;;18.77;82.20
73085;BME280;62974;49.460;10.892;2022-08-21T09:08:46;97881.69;;;18.65;83.18
73085;BME280;62974;49.460;10.892;2022-08-21T09:11:24;97877.19;;;18.75;81.64
73085;BME280;62974;49.460;10.892;2022-08-21T09:14:03;97873.94;;;18.95;81.26
73085;BME280;62974;49.460;10.892;2022-08-21T09:16:40;97872.34;;;18.99;81.71
73085;BME280;62974;49.460;10.892;2022-08-21T09:19:32;97873.00;;;19.06;80.77
73085;BME280;62974;49.460;10.892;2022-08-21T09:22:09;97875.09;;;19.21;80.47
73085;BME280;62974;49.460;10.892;2022-08-21T09:24:49;97873.13;;;19.16;80.86
73085;BME280;62974;49.460;10.892;2022-08-21T09:27:21;97875.66;;;19.23;80.88
73085;BME280;62974;49.460;10.892;2022-08-21T09:29:52;97871.84;;;19.24;81.36
73085;BME280;62974;49.460;10.892;2022-08-21T09:32:22;97871.63;;;19.26;81.09
73085;BME280;62974;49.460;10.892;2022-08-21T09:35:06;97870.13;;;19.40;81.13
73085;BME280;62974;49.460;10.892;2022-08-21T09:37:48;97864.19;;;19.43;80.10
73085;BME280;62974;49.460;10.892;2022-08-21T09:40:30;97865.63;;;19.72;79.95
73085;BME280;62974;49.460;10.892;2022-08-21T09:43:00;97865.38;;;19.74;78.92
73085;BME280;62974;49.460;10.892;2022-08-21T09:45:28;97861.88;;;19.78;78.86
73085;BME280;62974;49.460;10.892;2022-08-21T09:48:10;97853.22;;;19.86;78.39
73085;BME280;62974;49.460;10.892;2022-08-21T09:50:38;97855.78;;;19.71;78.91
73085;BME280;62974;49.460;10.892;2022-08-21T09:53:16;97846.66;;;19.82;78.53
73085;BME280;62974;49.460;10.892;2022-08-21T09:55:52;97845.19;;;20.06;78.39
73085;BME280;62974;49.460;10.892;2022-08-21T09:58:40;97840.75;;;20.27;77.77
73085;BME280;62974;49.460;10.892;2022-08-21T10:01:14;97842.16;;;20.30;77.26
73085;BME280;62974;49.460;10.892;2022-08-21T10:03:43;97846.28;;;20.32;77.57
73085;BME280;62974;49.460;10.892;2022-08-21T10:06:21;97842.00;;;20.46;77.19
73085;BME280;62974;49.460;10.892;2022-08-21T10:08:51;97842.28;;;20.45;76.39
73085;BME280;62974;49.460;10.892;2022-08-21T10:11:30;97839.63;;;20.23;76.52
73085;BME280;62974;49.460;10.892;2022-08-21T10:14:10;97831.28;;;20.35;76.90
73085;BME280;62974;49.460;10.892;2022-08-21T10:16:46;97832.38;;;20.39;75.98
73085;BME280;62974;49.460;10.892;2022-08-21T10:19:26;97834.38;;;20.48;75.56
73085;BME280;62974;49.460;10.892;2022-08-21T10:22:02;97835.75;;;20.46;75.99
73085;BME280;62974;49.460;10.892;2022-08-21T10:24:41;97840.28;;;20.35;76.36
73085;BME280;62974;49.460;10.892;2022-08-21T10:27:17;97836.47;;;20.36;75.91
73085;BME280;62974;49.460;10.892;2022-08-21T10:29:53;97837.25;;;20.32;76.02
73085;BME280;62974;49.460;10.892;2022-08-21T10:32:51;97833.63;;;20.58;73.43
73085;BME280;62974;49.460;10.892;2022-08-21T10:35:24;97835.34;;;20.74;73.51
73085;BME280;62974;49.460;10.892;2022-08-21T10:38:07;97843.53;;;20.74;73.46
73085;BME280;62974;49.460;10.892;2022-08-21T10:41:08;97834.59;;;20.84;73.58
73085;BME280;62974;49.460;10.892;2022-08-21T10:43:44;97827.53;;;20.93;74.25
73085;BME280;62974;49.460;10.892;2022-08-21T10:46:21;97831.34;;;20.92;73.01
73085;BME280;62974;49.460;10.892;2022-08-21T10:48:58;97827.53;;;20.93;72.78
73085;BME280;62974;49.460;10.892;2022-08-21T10:51:30;97827.00;;;20.96;72.09
73085;BME280;62974;49.460;10.892;2022-08-21T10:54:04;97830.59;;;21.06;71.57
73085;BME280;62974;49.460;10.892;2022-08-21T10:56:38;97815.31;;;21.05;71.44
73085;BME280;62974;49.460;10.892;2022-08-21T10:59:20;97813.91;;;21.03;70.48
73085;BME280;62974;49.460;10.892;2022-08-21T11:01:57;97805.59;;;21.30;70.33
73085;BME280;62974;49.460;10.892;2022-08-21T11:04:31;97810.38;;;21.07;70.21
73085;BME280;62974;49.460;10.892;2022-08-21T11:07:20;97811.41;;;20.91;70.22
73085;BME280;62974;49.460;10.892;2022-08-21T11:09:51;97820.56;;;20.65;70.61
73085;BME280;62974;49.460;10.892;2022-08-21T11:12:27;97807.78;;;20.76;70.40
73085;BME280;62974;49.460;10.892;2022-08-21T11:15:05;97800.91;;;21.20;68.93
73085;BME280;62974;49.460;10.892;2022-08-21T11:18:01;97809.16;;;21.40;68.58
73085;BME280;62974;49.460;10.892;2022-08-21T11:20:34;97813.78;;;21.35;70.12
73085;BME280;62974;49.460;10.892;2022-08-21T11:23:08;97803.38;;;21.27;70.12
73085;BME280;62974;49.460;10.892;2022-08-21T11:25:41;97805.81;;;21.18;68.84
73085;BME280;62974;49.460;10.892;2022-08-21T11:28:17;97791.91;;;21.25;67.75
73085;BME280;62974;49.460;10.892;2022-08-21T11:30:58;97795.50;;;21.40;67.83
73085;BME280;62974;49.460;10.892;2022-08-21T11:33:39;97784.06;;;21.79;66.30
73085;BME280;62974;49.460;10.892;2022-08-21T11:36:15;97788.78;;;21.93;66.70
73085;BME280;62974;49.460;10.892;2022-08-21T11:38:51;97788.47;;;21.85;66.51
73085;BME280;62974;49.460;10.892;2022-08-21T11:41:26;97791.47;;;21.88;67.08
73085;BME280;62974;49.460;10.892;2022-08-21T11:44:02;97796.38;;;21.61;67.86
73085;BME280;62974;49.460;10.892;2022-08-21T11:46:47;97783.75;;;21.40;67.76
73085;BME280;62974;49.460;10.892;2022-08-21T11:49:36;97784.63;;;21.66;66.74
73085;BME280;62974;49.460;10.892;2022-08-21T11:52:13;97785.97;;;21.68;66.07
73085;BME280;62974;49.460;10.892;2022-08-21T11:54:47;97777.78;;;21.68;66.87
73085;BME280;62974;49.460;10.892;2022-08-21T11:57:20;97783.22;;;21.53;66.39
73085;BME280;62974;49.460;10.892;2022-08-21T11:59:53;97764.94;;;21.53;67.38
73085;BME280;62974;49.460;10.892;2022-08-21T12:02:25;97775.88;;;21.79;67.18
73085;BME280;62974;49.460;10.892;2022-08-21T12:04:57;97774.75;;;21.70;64.25
73085;BME280;62974;49.460;10.892;2022-08-21T12:07:38;97770.94;;;21.45;65.59
73085;BME280;62974;49.460;10.892;2022-08-21T12:10:09;97768.97;;;21.36;64.70
73085;BME280;62974;49.460;10.892;2022-08-21T12:12:39;97775.56;;;21.45;65.04
73085;BME280;62974;49.460;10.892;2022-08-21T12:15:24;97761.09;;;21.49;64.74
73085;BME280;62974;49.460;10.892;2022-08-21T12:17:57;97761.09;;;21.65;64.53
73085;BME280;62974;49.460;10.892;2022-08-21T12:20:59;97764.66;;;21.75;64.28
73085;BME280;62974;49.460;10.892;2022-08-21T12:23:30;97763.28;;;21.78;64.49
73085;BME280;62974;49.460;10.892;2022-08-21T12:26:02;97759.50;;;22.09;63.63
73085;BME280;62974;49.460;10.892;2022-08-21T12:28:30;97760.78;;;22.52;63.66
73085;BME280;62974;49.460;10.892;2022-08-21T12:31:00;97753.09;;;22.59;61.90
73085;BME280;62974;49.460;10.892;2022-08-21T12:33:30;97761.84;;;22.56;61.53
73085;BME280;62974;49.460;10.892;2022-08-21T12:36:04;97757.47;;;22.55;62.72
73085;BME280;62974;49.460;10.892;2022-08-21T12:38:45;97762.09;;;22.75;61.26
73085;BME280;62974;49.460;10.892;2022-08-21T12:41:17;97753.06;;;22.69;61.94
73085;BME280;62974;49.460;10.892;2022-08-21T12:43:47;97759.09;;;22.71;61.81
73085;BME280;62974;49.460;10.892;2022-08-21T12:46:29;97760.19;;;22.75;60.35
73085;BME280;62974;49.460;10.892;2022-08-21T12:49:00;97760.50;;;22.43;61.35
73085;BME280;62974;49.460;10.892;2022-08-21T12:51:34;97768.75;;;22.28;62.15
73085;BME280;62974;49.460;10.892;2022-08-21T12:54:05;97754.28;;;22.02;61.98
73085;BME280;62974;49.460;10.892;2022-08-21T12:56:34;97748.84;;;21.97;62.84
73085;BME280;62974;49.460;10.892;2022-08-21T12:59:04;97741.94;;;21.90;61.25
73085;BME280;62974;49.460;10.892;2022-08-21T13:01:35;97743.34;;;22.02;62.87
73085;BME280;62974;49.460;10.892;2022-08-21T13:04:10;97747.69;;;22.19;59.97
73085;BME280;62974;49.460;10.892;2022-08-21T13:06:41;97741.63;;;22.52;60.13
73085;BME280;62974;49.460;10.892;2022-08-21T13:09:11;97740.53;;;22.53;61.44
73085;BME280;62974;49.460;10.892;2022-08-21T13:11:41;97738.56;;;22.54;60.18